OPKC/KHI METAR and TAF weather

Enter ICAO airport designator
Station Type Date Time Source
OPKC METAR 2021/07/28 05:30 UTC NOAA

OPKC 280530Z 24017KT 3500 FU SCT018 BKN025 OVC100 29/25 Q0996 TEMPO 24017G27KT


Station Type Date Time Source
OPKC Decoded METAR 2021/07/28 05:30 UTC NOAA

Karachi Airport, Pakistan (OPKC) 24-54N 067-08E 22M
Jul 28, 2021 - 01:30 AM EDT / 2021.07.28 0530 UTC
Wind: from the WSW (240 degrees) at 20 MPH (17 KT):0
Visibility: 2 mile(s):0
Sky conditions: overcast
Weather: smoke
Temperature: 84 F (29 C)
Dew Point: 77 F (25 C)
Relative Humidity: 79%
Pressure (altimeter): 29.41 in. Hg (0996 hPa)
ob: OPKC 280530Z 24017KT 3500 FU SCT018 BKN025 OVC100 29/25 Q0996 TEMPO 24017G27KT
cycle: 5

Station Type Date Time Source
OPKC TAF 2021/07/28 06:03 UTC NOAA

TAF OPKC 280330Z 2806/2912 24015G25KT 5000 HZ SCT020 BKN030
FM281800 25008G18KT 4000 DZ SCT020 BKN025
FM290600 24012G22KT 6000 SCT020 BKN030

Example: see airport list